Time;durP1;ratioP1;P1;durP2;ratioP2;P2;SDS_P1;SDS_P2;PMS_P1;PMS_P2;Temp;Humidity;BMP_temperature;BMP_pressure;BME280_temperature;BME280_humidity;BME280_pressure;Samples;Min_cycle;Max_cycle;Signal;HPM_P1;HPM_P2
2021/01/10 00:00:19;;;;;;;35.28;14.93;;;;;;;24.47;15.27;98661.66;5087192;28;20036;-84
2021/01/10 00:02:46;;;;;;;40.17;17.08;;;;;;;24.61;15.11;98656.66;5083905;28;20483;-84
2021/01/10 00:05:18;;;;;;;34.25;14.93;;;;;;;24.75;14.97;98661.25;5084142;28;20050;-83
2021/01/10 00:07:44;;;;;;;37.90;16.50;;;;;;;24.81;14.73;98653.19;5079494;28;20190;-83
2021/01/10 00:10:11;;;;;;;37.67;16.17;;;;;;;24.55;14.81;98655.50;5062935;28;20032;-84
2021/01/10 00:12:38;;;;;;;33.65;14.60;;;;;;;24.45;14.86;98656.47;5086339;28;20040;-84
2021/01/10 00:15:09;;;;;;;47.03;19.33;;;;;;;24.45;14.88;98662.09;5083812;28;20032;-83
2021/01/10 00:17:39;;;;;;;34.80;15.93;;;;;;;24.40;15.18;98656.16;5082480;28;20042;-83
2021/01/10 00:20:10;;;;;;;30.40;13.45;;;;;;;24.46;15.12;98658.06;5080719;28;20110;-83
2021/01/10 00:22:36;;;;;;;30.52;13.80;;;;;;;24.55;14.89;98668.78;5085201;28;20028;-84
2021/01/10 00:25:08;;;;;;;34.22;14.98;;;;;;;24.57;14.93;98663.53;5082085;28;20032;-84
2021/01/10 00:27:36;;;;;;;39.67;15.70;;;;;;;24.40;15.16;98671.00;5082020;28;20043;-84
2021/01/10 00:30:05;;;;;;;35.03;14.25;;;;;;;24.32;15.10;98671.50;5086112;28;20507;-83
2021/01/10 00:32:31;;;;;;;31.33;14.75;;;;;;;24.31;15.17;98676.31;5081979;28;20473;-84
2021/01/10 00:34:57;;;;;;;31.00;14.73;;;;;;;24.41;15.26;98668.97;5081910;28;20028;-84
2021/01/10 00:37:24;;;;;;;31.58;14.65;;;;;;;24.64;15.07;98671.84;5086004;28;20032;-84
2021/01/10 00:39:51;;;;;;;33.65;13.82;;;;;;;24.66;14.93;98675.81;5084706;28;20040;-84
2021/01/10 00:42:18;;;;;;;27.80;12.85;;;;;;;24.53;15.10;98679.59;5084735;28;20039;-83
2021/01/10 00:44:48;;;;;;;31.73;13.50;;;;;;;24.38;15.20;98681.03;5083640;28;20044;-83
2021/01/10 00:47:18;;;;;;;32.47;15.43;;;;;;;24.19;15.53;98682.50;5084400;28;20097;-83
2021/01/10 00:49:47;;;;;;;29.17;12.20;;;;;;;24.29;15.28;98677.97;5081383;28;20016;-83
2021/01/10 00:52:13;;;;;;;27.88;14.55;;;;;;;24.44;14.98;98680.16;5083420;28;20032;-85
2021/01/10 00:54:39;;;;;;;34.53;14.50;;;;;;;24.52;14.92;98678.84;5084485;28;20043;-83
2021/01/10 00:57:06;;;;;;;27.73;12.32;;;;;;;24.57;15.08;98681.19;5082223;28;20680;-83
2021/01/10 00:59:32;;;;;;;29.90;13.85;;;;;;;24.43;14.89;98681.38;5084146;28;20043;-83
2021/01/10 01:01:58;;;;;;;28.60;12.50;;;;;;;24.00;15.59;98685.91;5081535;28;20392;-83
2021/01/10 01:04:24;;;;;;;32.90;13.98;;;;;;;24.03;15.68;98690.69;5080229;28;20061;-83
2021/01/10 01:06:51;;;;;;;35.95;13.00;;;;;;;24.12;15.49;98690.19;5063590;28;20115;-83
2021/01/10 01:09:17;;;;;;;27.33;12.23;;;;;;;24.09;15.55;98697.44;5081896;28;20590;-83
2021/01/10 01:11:43;;;;;;;34.38;14.13;;;;;;;24.23;15.17;98691.66;5087478;28;20525;-83
2021/01/10 01:14:11;;;;;;;35.17;14.13;;;;;;;24.25;15.22;98688.44;5064236;28;20032;-83
2021/01/10 01:16:39;;;;;;;42.28;16.52;;;;;;;24.19;15.35;98695.72;5084485;28;20036;-84
2021/01/10 01:19:06;;;;;;;29.02;13.35;;;;;;;23.98;15.55;98691.94;5080270;28;20024;-84
2021/01/10 01:21:32;;;;;;;31.27;14.00;;;;;;;23.58;15.86;98691.97;5084544;28;20028;-84
2021/01/10 01:23:58;;;;;;;38.67;15.00;;;;;;;23.60;15.97;98684.75;5080684;28;20044;-84
2021/01/10 01:26:25;;;;;;;27.30;12.25;;;;;;;23.72;15.79;98686.22;5081861;28;20046;-83
2021/01/10 01:28:52;;;;;;;29.33;11.88;;;;;;;23.80;15.43;98691.34;5064040;28;20403;-84
2021/01/10 01:31:23;;;;;;;33.83;14.55;;;;;;;23.75;15.64;98688.19;5081186;28;20039;-84
2021/01/10 01:33:50;;;;;;;;;;;;;;;23.68;15.98;98689.09;5085876;28;20400;-84
2021/01/10 01:36:24;;;;;;;35.55;16.30;;;;;;;23.80;15.50;98691.34;5083559;28;19912;-83
2021/01/10 01:38:52;;;;;;;32.05;13.65;;;;;;;23.48;15.58;98685.25;5080683;28;20500;-84
2021/01/10 01:41:18;;;;;;;26.55;12.48;;;;;;;23.48;15.72;98692.91;5081744;28;20051;-83
2021/01/10 01:43:44;;;;;;;32.65;14.68;;;;;;;23.64;15.58;98696.72;5083126;28;20036;-83
2021/01/10 01:46:19;;;;;;;28.48;12.63;;;;;;;23.75;15.42;98691.81;5083100;28;20060;-83
2021/01/10 01:48:46;;;;;;;37.13;16.35;;;;;;;23.77;15.33;98694.19;5045729;28;20123;-83
2021/01/10 01:51:12;;;;;;;31.83;13.88;;;;;;;23.76;15.25;98686.97;5083358;28;20032;-83
2021/01/10 01:53:40;;;;;;;32.72;14.23;;;;;;;23.57;15.55;98696.78;5082289;28;20039;-84
2021/01/10 01:56:06;;;;;;;33.85;14.95;;;;;;;23.29;15.96;98691.44;5087555;28;20423;-83
2021/01/10 01:58:33;;;;;;;26.42;12.07;;;;;;;23.08;16.09;98698.00;5080406;28;20040;-83
2021/01/10 02:00:59;;;;;;;30.23;12.13;;;;;;;23.29;15.83;98692.22;5080515;28;20063;-83
2021/01/10 02:03:31;;;;;;;27.17;11.88;;;;;;;23.55;15.56;98695.63;5085838;28;20084;-83
2021/01/10 02:06:01;;;;;;;25.60;11.95;;;;;;;23.57;15.59;98693.22;5082702;28;20487;-83
2021/01/10 02:08:30;;;;;;;28.70;11.87;;;;;;;23.66;15.54;98696.31;5079955;28;20028;-83
2021/01/10 02:11:00;;;;;;;30.13;12.57;;;;;;;23.85;15.38;98701.31;5081492;28;20289;-83
2021/01/10 02:13:31;;;;;;;41.40;15.43;;;;;;;23.65;15.59;98692.72;5081611;28;20059;-83
2021/01/10 02:16:00;;;;;;;36.55;14.38;;;;;;;23.53;15.53;98690.44;5082142;28;20113;-84
2021/01/10 02:18:31;;;;;;;27.70;12.30;;;;;;;23.60;15.52;98693.16;5078590;28;20079;-84
2021/01/10 02:21:04;;;;;;;36.95;14.70;;;;;;;23.58;15.40;98689.97;5080878;28;20032;-84
2021/01/10 02:23:32;;;;;;;39.17;16.05;;;;;;;23.43;15.66;98690.53;5082739;28;20059;-84
2021/01/10 02:26:01;;;;;;;37.15;15.23;;;;;;;23.25;15.73;98694.25;5084396;28;20036;-83
2021/01/10 02:28:31;;;;;;;28.65;11.65;;;;;;;23.43;15.55;98691.34;5079456;28;20159;-84
2021/01/10 02:30:59;;;;;;;36.78;14.88;;;;;;;23.61;15.38;98693.97;5080639;28;20031;-84
2021/01/10 02:33:45;;;;;;;28.50;11.45;;;;;;;23.58;15.39;98698.38;5079153;28;20110;-84
2021/01/10 02:36:37;;;;;;;26.92;12.60;;;;;;;23.51;15.53;98692.84;5081105;28;20032;-84
2021/01/10 02:39:19;;;;;;;24.58;10.90;;;;;;;23.46;15.59;98698.91;5045680;28;20036;-84
2021/01/10 02:42:06;;;;;;;31.85;13.10;;;;;;;23.45;15.47;98691.72;5082102;28;20780;-84
2021/01/10 02:44:39;;;;;;;38.08;14.48;;;;;;;23.17;15.83;98686.34;5083949;28;20541;-84
2021/01/10 02:47:07;;;;;;;25.48;11.07;;;;;;;23.32;15.83;98694.19;5081408;28;20060;-83
2021/01/10 02:49:34;;;;;;;39.42;15.38;;;;;;;23.47;15.58;98696.91;5079311;28;20111;-84
2021/01/10 02:52:00;;;;;;;34.05;13.13;;;;;;;23.32;15.71;98696.19;5080098;28;20396;-83
2021/01/10 02:54:27;;;;;;;33.30;12.60;;;;;;;23.45;15.62;98694.53;5084259;28;20035;-84
2021/01/10 02:57:23;;;;;;;30.20;12.93;;;;;;;23.42;15.57;98697.34;5089197;28;20075;-84
2021/01/10 02:59:51;;;;;;;32.15;13.73;;;;;;;23.28;15.58;98695.44;5085445;28;20058;-84
2021/01/10 03:02:19;;;;;;;33.70;13.68;;;;;;;23.26;15.56;98697.88;5084200;28;20082;-84
2021/01/10 03:04:46;;;;;;;22.23;10.00;;;;;;;23.56;15.41;98700.81;5084105;28;20039;-84
2021/01/10 03:07:14;;;;;;;31.02;14.27;;;;;;;23.51;15.56;98695.66;5064639;28;20396;-84
2021/01/10 03:09:40;;;;;;;35.38;13.35;;;;;;;23.25;15.66;98690.66;5084987;28;20090;-84
2021/01/10 03:12:19;;;;;;;35.10;13.95;;;;;;;23.32;15.59;98690.59;5085111;28;20040;-84
2021/01/10 03:14:46;;;;;;;32.88;13.52;;;;;;;23.49;15.62;98686.88;5079399;28;20035;-84
2021/01/10 03:17:27;;;;;;;28.33;12.52;;;;;;;23.40;15.58;98682.97;5081177;28;20032;-84
2021/01/10 03:19:53;;;;;;;30.45;12.18;;;;;;;23.62;15.47;98678.75;5084942;28;20028;-84
2021/01/10 03:22:19;;;;;;;32.75;14.10;;;;;;;23.79;15.22;98686.94;5064694;28;20085;-84
2021/01/10 03:24:45;;;;;;;32.85;13.70;;;;;;;23.71;15.27;98681.84;5084213;28;20037;-84
2021/01/10 03:27:11;;;;;;;30.77;14.07;;;;;;;23.65;15.23;98675.88;5086039;28;20032;-84
2021/01/10 03:29:37;;;;;;;36.03;15.70;;;;;;;23.71;15.22;98681.84;5083235;28;20039;-83
2021/01/10 03:32:04;;;;;;;39.95;16.73;;;;;;;23.80;15.24;98684.94;5088343;28;20043;-83
2021/01/10 03:34:30;;;;;;;36.92;15.45;;;;;;;24.00;14.91;98685.91;5088161;28;20073;-83
2021/01/10 03:36:56;;;;;;;41.55;16.35;;;;;;;23.92;15.14;98690.03;5068136;28;20044;-83
2021/01/10 03:39:22;;;;;;;42.28;15.77;;;;;;;23.72;15.49;98687.03;5078056;28;20045;-83
2021/01/10 03:41:48;;;;;;;35.00;15.18;;;;;;;23.19;15.61;98644.69;5065581;28;20037;-83
2021/01/10 03:44:14;;;;;;;26.42;12.50;;;;;;;23.45;15.73;98686.13;5066404;28;20103;-83
2021/01/10 03:46:40;;;;;;;36.53;16.85;;;;;;;23.57;15.53;98688.38;5063199;28;20492;-84
2021/01/10 03:49:06;;;;;;;30.73;12.48;;;;;;;23.53;15.60;98679.22;5065516;28;20395;-83
2021/01/10 03:51:33;;;;;;;23.25;11.13;;;;;;;23.70;15.28;98686.66;5062999;28;20028;-83
2021/01/10 03:53:59;;;;;;;29.83;12.90;;;;;;;23.89;15.16;98691.66;5065004;28;20729;-83
2021/01/10 03:56:25;;;;;;;25.45;10.75;;;;;;;23.94;15.07;98693.19;5066499;28;20032;-83
2021/01/10 03:58:51;;;;;;;32.40;14.32;;;;;;;23.70;15.43;98686.66;5048313;28;20449;-83
2021/01/10 04:01:17;;;;;;;33.47;13.45;;;;;;;23.16;15.99;98693.94;5043710;28;20431;-83
2021/01/10 04:03:43;;;;;;;23.05;10.95;;;;;;;23.26;15.95;98697.88;5065702;28;20064;-83
2021/01/10 04:06:09;;;;;;;29.35;12.57;;;;;;;23.56;15.41;98695.22;5063678;28;20624;-83
2021/01/10 04:08:35;;;;;;;27.38;12.23;;;;;;;23.83;15.40;98692.50;5064996;28;20048;-83
2021/01/10 04:11:01;;;;;;;28.88;13.10;;;;;;;23.96;15.08;98697.19;5064414;28;20036;-83
2021/01/10 04:13:27;;;;;;;28.35;12.40;;;;;;;24.08;15.19;98700.69;5060159;28;21850;-83
2021/01/10 04:15:53;;;;;;;26.38;12.45;;;;;;;24.11;14.83;98702.66;5062454;28;20534;-83
2021/01/10 04:18:19;;;;;;;25.90;10.85;;;;;;;24.03;14.96;98702.72;5065722;28;20469;-83
2021/01/10 04:20:45;;;;;;;32.80;13.98;;;;;;;23.55;15.47;98690.03;5061206;28;20032;-83
2021/01/10 04:23:11;;;;;;;32.90;13.32;;;;;;;23.01;16.05;98703.66;5063499;28;20048;-83
2021/01/10 04:25:38;;;;;;;22.17;10.85;;;;;;;23.07;15.97;98701.22;5049241;28;20047;-83
2021/01/10 04:28:05;;;;;;;22.95;10.63;;;;;;;23.33;15.72;98703.41;5038822;28;20333;-84
2021/01/10 04:30:31;;;;;;;25.10;12.23;;;;;;;23.58;15.43;98706.81;5043182;28;20036;-83
2021/01/10 04:32:57;;;;;;;25.38;10.60;;;;;;;23.64;15.44;98685.50;5028399;28;20127;-83
2021/01/10 04:35:24;;;;;;;36.80;16.75;;;;;;;23.59;15.34;98700.00;5026864;28;20033;-84
2021/01/10 04:37:50;;;;;;;35.55;15.20;;;;;;;23.44;15.55;98700.53;5039127;28;20044;-83
2021/01/10 04:40:17;;;;;;;30.55;14.25;;;;;;;23.33;15.66;98698.59;5051186;28;21316;-83
2021/01/10 04:42:44;;;;;;;23.25;11.13;;;;;;;23.25;15.76;98699.88;5069482;28;20036;-83
2021/01/10 04:45:11;;;;;;;24.35;11.48;;;;;;;23.48;15.63;98698.50;5079603;28;20047;-83
2021/01/10 04:47:37;;;;;;;34.30;13.80;;;;;;;23.30;15.79;98693.03;5067444;28;20476;-83
2021/01/10 04:50:04;;;;;;;28.05;11.63;;;;;;;23.35;15.73;98693.41;5089358;28;20059;-83
2021/01/10 04:52:32;;;;;;;25.92;12.25;;;;;;;23.74;15.40;98693.00;5087199;28;20157;-84
2021/01/10 04:55:01;;;;;;;28.77;11.13;;;;;;;24.03;15.00;98701.91;5089039;28;20072;-84
2021/01/10 04:57:31;;;;;;;29.70;11.82;;;;;;;24.11;15.00;98702.66;5067348;28;20106;-84
2021/01/10 04:59:58;;;;;;;27.73;12.65;;;;;;;24.08;14.88;98700.69;5083032;28;20032;-84
2021/01/10 05:02:26;;;;;;;23.27;10.93;;;;;;;24.01;14.92;98693.88;5087692;28;20028;-84
2021/01/10 05:04:53;;;;;;;21.92;10.10;;;;;;;24.07;15.05;98697.06;5087508;28;20177;-84
2021/01/10 05:07:20;;;;;;;27.65;11.98;;;;;;;24.11;14.96;98711.84;5092651;28;20032;-84
2021/01/10 05:09:47;;;;;;;32.60;13.35;;;;;;;23.93;15.23;98708.44;5089790;28;20032;-84
2021/01/10 05:12:14;;;;;;;25.20;11.82;;;;;;;23.40;15.53;98710.97;5093170;28;20024;-84
2021/01/10 05:14:40;;;;;;;29.70;12.73;;;;;;;23.33;15.69;98717.41;5077431;28;20506;-84
2021/01/10 05:17:14;;;;;;;23.73;10.85;;;;;;;23.55;15.60;98712.47;5086186;28;20038;-84
2021/01/10 05:19:43;;;;;;;24.13;10.88;;;;;;;23.57;15.47;98712.84;5068929;28;20039;-84
2021/01/10 05:22:09;;;;;;;21.98;9.68;;;;;;;23.67;15.31;98715.50;5082615;28;20060;-83
2021/01/10 05:24:35;;;;;;;22.75;10.80;;;;;;;23.83;15.12;98712.94;5083826;28;20042;-84
2021/01/10 05:27:02;;;;;;;31.58;13.77;;;;;;;23.86;14.90;98722.53;5081930;28;20070;-84
2021/01/10 05:29:29;;;;;;;35.40;13.43;;;;;;;23.84;14.90;98722.16;5082638;28;20047;-84
2021/01/10 05:31:56;;;;;;;28.52;11.85;;;;;;;23.70;14.69;98720.28;5082140;28;20032;-84
2021/01/10 05:34:23;;;;;;;33.13;13.13;;;;;;;23.60;14.89;98720.38;5084696;28;20070;-84
2021/01/10 05:36:50;;;;;;;36.03;14.93;;;;;;;23.38;14.70;98723.38;5091493;28;20056;-83
2021/01/10 05:39:19;;;;;;;33.42;14.35;;;;;;;23.13;14.81;98713.56;5083876;28;20032;-84
2021/01/10 05:41:50;;;;;;;40.47;15.95;;;;;;;22.40;15.66;98721.25;5078500;28;20082;-84
2021/01/10 05:44:17;;;;;;;29.85;13.80;;;;;;;22.08;15.98;98712.97;5091938;28;20671;-84
2021/01/10 05:46:43;;;;;;;34.55;14.30;;;;;;;22.08;16.02;98710.16;5084766;28;20032;-83
2021/01/10 05:49:20;;;;;;;26.60;11.82;;;;;;;22.21;15.44;98710.53;5089999;28;20493;-83
2021/01/10 05:51:48;;;;;;;26.77;12.00;;;;;;;22.41;15.18;98709.63;5086400;28;20115;-83
2021/01/10 05:54:40;;;;;;;32.38;13.65;;;;;;;21.78;15.81;98712.63;5083260;28;20383;-84
2021/01/10 05:57:08;;;;;;;31.13;12.23;;;;;;;21.94;15.82;98713.81;5075363;28;20051;-84
2021/01/10 05:59:54;;;;;;;28.85;12.98;;;;;;;21.96;15.77;98716.22;5080219;28;20039;-84
2021/01/10 06:02:33;;;;;;;25.58;10.70;;;;;;;21.89;15.78;98716.25;5082017;28;20431;-84
2021/01/10 06:05:12;;;;;;;22.05;9.60;;;;;;;21.66;16.00;98710.25;5067540;28;20488;-84
2021/01/10 06:07:39;;;;;;;32.08;13.60;;;;;;;21.45;15.88;98710.31;5085478;28;20541;-84
2021/01/10 06:10:07;;;;;;;27.23;12.00;;;;;;;21.38;16.13;98715.91;5085833;28;20024;-84
2021/01/10 06:12:34;;;;;;;30.83;12.25;;;;;;;21.07;16.07;98709.94;5085369;28;20069;-84
2021/01/10 06:15:17;;;;;;;28.58;10.77;;;;;;;20.90;16.02;98719.06;5079716;28;20492;-85
2021/01/10 06:17:48;;;;;;;27.50;11.23;;;;;;;21.05;15.61;98712.31;5081942;28;20036;-85
2021/01/10 06:20:22;;;;;;;30.02;11.27;;;;;;;21.32;15.59;98721.91;5079696;28;20024;-86
2021/01/10 06:22:51;;;;;;;24.40;10.98;;;;;;;21.13;16.27;98722.31;5080489;28;20029;-87
2021/01/10 06:25:26;;;;;;;28.92;12.45;;;;;;;21.17;15.73;98722.28;5078945;28;20033;-86
2021/01/10 06:28:16;;;;;;;27.67;11.00;;;;;;;21.03;15.77;98725.84;5087398;28;20036;-86
2021/01/10 06:30:52;;;;;;;30.38;12.23;;;;;;;21.15;15.48;98722.69;5075877;28;20041;-85
2021/01/10 06:33:27;;;;;;;28.48;11.55;;;;;;;20.76;15.81;98737.78;5081399;28;20047;-85
2021/01/10 06:35:58;;;;;;;21.45;9.82;;;;;;;20.70;15.96;98733.78;5075540;28;20173;-86
2021/01/10 06:38:26;;;;;;;25.25;12.13;;;;;;;20.94;15.79;98739.41;5073837;28;20028;-83
2021/01/10 06:41:20;;;;;;;24.90;9.98;;;;;;;20.97;15.65;98741.41;5086439;28;20094;-85
2021/01/10 06:44:01;;;;;;;29.67;12.43;;;;;;;20.58;15.86;98749.69;5078671;28;20048;-85
2021/01/10 06:46:28;;;;;;;20.95;8.95;;;;;;;20.38;16.12;98750.44;5084106;28;20034;-85
2021/01/10 06:48:54;;;;;;;26.00;11.50;;;;;;;20.46;15.93;98749.28;5083500;28;20032;-84
2021/01/10 06:51:27;;;;;;;22.42;9.50;;;;;;;20.37;16.29;98754.41;5082494;28;20032;-85
2021/01/10 06:53:54;;;;;;;19.80;8.18;;;;;;;20.71;15.87;98760.50;5087729;28;20035;-85
2021/01/10 06:56:21;;;;;;;24.27;9.40;;;;;;;20.62;15.92;98760.88;5088257;28;20103;-85
2021/01/10 06:59:08;;;;;;;26.83;11.65;;;;;;;20.47;16.18;98767.59;5082761;28;20108;-85
2021/01/10 07:01:50;;;;;;;23.55;8.80;;;;;;;20.70;15.65;98768.06;5089118;28;20036;-84
2021/01/10 07:04:21;;;;;;;21.58;9.68;;;;;;;21.23;15.16;98763.41;5084967;28;20401;-85
2021/01/10 07:06:52;;;;;;;15.80;7.43;;;;;;;21.49;14.81;98761.41;5085181;28;20036;-87
2021/01/10 07:09:23;;;;;;;20.52;8.77;;;;;;;21.53;14.86;98765.78;5081404;28;20025;-88
2021/01/10 07:11:50;;;;;;;19.15;8.15;;;;;;;21.68;14.88;98767.34;5082702;28;20041;-85
2021/01/10 07:14:26;;;;;;;24.02;9.65;;;;;;;21.54;15.10;98772.19;5085646;28;20036;-85
2021/01/10 07:17:10;;;;;;;20.42;7.97;;;;;;;21.45;15.51;98771.78;5083292;28;20027;-88
2021/01/10 07:19:44;;;;;;;23.73;8.48;;;;;;;21.60;15.60;98781.75;5082762;28;20081;-86
2021/01/10 07:22:29;;;;;;;14.55;6.78;;;;;;;21.77;15.35;98781.75;5084531;28;20028;-86
2021/01/10 07:24:55;;;;;;;25.00;10.38;;;;;;;21.46;15.35;98776.16;5080327;28;20090;-86
2021/01/10 07:27:30;;;;;;;21.33;9.27;;;;;;;21.45;15.21;98780.94;5083122;28;20097;-87
2021/01/10 07:29:56;;;;;;;26.67;9.98;;;;;;;21.67;15.19;98784.53;5085741;28;20032;-88
2021/01/10 07:32:36;;;;;;;20.13;8.88;;;;;;;21.73;15.49;98785.72;5082751;28;20067;-86
2021/01/10 07:35:05;;;;;;;18.10;8.88;;;;;;;22.06;14.99;98790.88;5083535;28;20081;-86
2021/01/10 07:37:33;;;;;;;21.38;9.85;;;;;;;22.28;14.65;98794.41;5083735;28;20054;-87
2021/01/10 07:40:03;;;;;;;23.83;9.77;;;;;;;22.38;14.62;98783.19;5085416;28;20376;-87
2021/01/10 07:42:34;;;;;;;22.52;9.98;;;;;;;22.47;14.78;98791.16;5087376;28;20032;-86
2021/01/10 07:45:16;;;;;;;25.83;10.18;;;;;;;22.32;14.70;98787.59;5085799;28;20055;-87
2021/01/10 07:47:48;;;;;;;26.75;10.95;;;;;;;22.25;15.14;98793.22;5083060;28;20044;-87
2021/01/10 07:50:17;;;;;;;32.97;13.15;;;;;;;21.52;15.80;98803.28;5083573;28;20046;-87
2021/01/10 07:52:46;;;;;;;25.40;10.93;;;;;;;21.34;15.99;98799.72;5077273;28;20063;-87
2021/01/10 07:55:18;;;;;;;27.48;11.13;;;;;;;21.45;15.80;98797.72;5085323;28;20484;-87
2021/01/10 07:57:44;;;;;;;27.10;11.07;;;;;;;21.69;15.56;98796.09;5087287;28;20036;-85
2021/01/10 08:00:19;;;;;;;20.05;8.77;;;;;;;21.89;15.32;98800.91;5091886;28;20442;-88
2021/01/10 08:02:49;;;;;;;22.10;9.82;;;;;;;22.13;15.26;98798.44;5084860;28;20079;-87
2021/01/10 08:05:17;;;;;;;23.80;11.43;;;;;;;22.19;15.38;98792.06;5086661;28;20488;-87
2021/01/10 08:07:46;;;;;;;28.55;13.82;;;;;;;22.14;15.61;98792.47;5082888;28;20028;-87
2021/01/10 08:10:14;;;;;;;29.38;13.20;;;;;;;22.02;15.83;98798.50;5077557;28;21815;-88
2021/01/10 08:12:40;;;;;;;27.88;13.07;;;;;;;22.38;15.37;98797.16;5085584;28;20020;-88
2021/01/10 08:15:07;;;;;;;24.30;11.65;;;;;;;22.64;15.30;98802.28;5081247;28;20153;-86
2021/01/10 08:17:36;;;;;;;28.95;13.52;;;;;;;22.47;15.16;98794.75;5086977;28;20032;-88
2021/01/10 08:20:07;;;;;;;34.60;13.15;;;;;;;22.32;15.58;98798.81;5086442;28;20028;-87
2021/01/10 08:22:34;;;;;;;28.40;13.63;;;;;;;22.36;15.71;98799.56;5089161;28;20055;-87
2021/01/10 08:25:05;;;;;;;31.83;14.48;;;;;;;22.24;15.69;98797.22;5092613;28;20638;-86
2021/01/10 08:27:31;;;;;;;23.65;12.07;;;;;;;22.45;15.40;98808.34;5065095;28;20395;-86
2021/01/10 08:29:58;;;;;;;33.17;14.05;;;;;;;22.48;15.41;98812.31;5081202;28;20036;-85
2021/01/10 08:32:24;;;;;;;32.72;12.55;;;;;;;22.63;15.29;98823.09;5084783;28;20117;-85
2021/01/10 08:34:52;;;;;;;33.20;14.80;;;;;;;22.54;15.44;98817.09;5071065;28;20033;-86
2021/01/10 08:37:23;;;;;;;34.33;12.68;;;;;;;22.59;15.37;98816.69;5089948;28;20038;-84
2021/01/10 08:40:15;;;;;;;26.77;11.52;;;;;;;22.64;15.15;98812.69;5085538;28;20055;-85
2021/01/10 08:42:41;;;;;;;31.20;12.00;;;;;;;23.00;15.08;98818.91;5084520;28;20451;-86
2021/01/10 08:45:23;;;;;;;26.10;11.60;;;;;;;22.79;15.25;98825.44;5092919;28;20040;-86
2021/01/10 08:47:49;;;;;;;29.80;13.18;;;;;;;22.74;15.15;98820.25;5083816;28;20051;-86
2021/01/10 08:50:16;;;;;;;22.67;10.75;;;;;;;22.82;15.12;98821.81;5091244;28;20379;-87
2021/01/10 08:53:11;;;;;;;24.73;10.98;;;;;;;22.70;15.43;98819.47;5088493;28;20043;-86
2021/01/10 08:55:42;;;;;;;26.95;12.10;;;;;;;22.88;15.07;98817.38;5066486;28;20052;-86
2021/01/10 08:58:09;;;;;;;27.02;10.48;;;;;;;22.89;15.02;98815.38;5093679;28;20028;-85
2021/01/10 09:00:41;;;;;;;28.10;11.68;;;;;;;22.92;15.11;98815.34;5073914;28;20097;-86
2021/01/10 09:03:17;;;;;;;;;;;;;;;22.80;15.32;98817.81;5086166;28;20430;-87
2021/01/10 09:05:44;;;;;;;26.10;11.07;;;;;;;22.95;15.06;98822.94;5086857;28;20049;-86
2021/01/10 09:08:29;;;;;;;25.25;11.07;;;;;;;23.01;15.07;98817.72;5072201;28;20467;-87
2021/01/10 09:11:13;;;;;;;22.75;10.05;;;;;;;23.12;14.82;98813.63;5090155;28;20028;-87
2021/01/10 09:13:45;;;;;;;21.27;9.63;;;;;;;23.24;14.71;98820.78;5088728;28;20032;-87
2021/01/10 09:16:14;;;;;;;25.77;12.07;;;;;;;22.77;15.24;98815.84;5082696;28;20047;-86
2021/01/10 09:18:44;;;;;;;23.65;10.13;;;;;;;22.72;15.38;98825.47;5084380;28;20111;-86
2021/01/10 09:21:15;;;;;;;20.27;9.33;;;;;;;22.77;15.30;98821.44;5090032;28;20055;-87
2021/01/10 09:23:53;;;;;;;17.80;8.35;;;;;;;22.60;15.40;98826.72;5087949;28;20032;-87
2021/01/10 09:26:34;;;;;;;15.32;7.78;;;;;;;22.83;15.19;98809.41;5085895;28;20051;-86
2021/01/10 09:29:02;;;;;;;18.52;8.85;;;;;;;23.16;14.98;98820.00;5085010;28;20055;-86
2021/01/10 09:31:43;;;;;;;17.58;8.55;;;;;;;23.32;14.92;98819.50;5087766;28;20407;-86
2021/01/10 09:34:10;;;;;;;;;;;;;;;23.18;15.25;98819.59;5088258;28;20537;-86
2021/01/10 09:36:37;;;;;;;13.82;6.78;;;;;;;23.49;14.88;98820.59;5088802;28;20283;-86
2021/01/10 09:39:06;;;;;;;16.67;7.88;;;;;;;23.50;14.87;98822.22;5085096;28;20068;-86
2021/01/10 09:41:51;;;;;;;18.08;9.50;;;;;;;23.28;15.07;98819.53;5083774;28;20028;-86
2021/01/10 09:44:19;;;;;;;22.58;10.43;;;;;;;23.27;15.18;98822.72;5082242;28;20020;-86
2021/01/10 09:46:52;;;;;;;19.90;10.45;;;;;;;23.03;15.39;98820.91;5084736;28;20040;-86
2021/01/10 09:49:29;;;;;;;15.45;7.75;;;;;;;23.24;15.30;98818.75;5087573;28;20093;-86
2021/01/10 09:51:58;;;;;;;17.85;7.78;;;;;;;23.40;14.89;98814.66;5087868;28;20035;-86
2021/01/10 09:54:27;;;;;;;13.18;7.00;;;;;;;23.18;15.26;98823.19;5069461;28;20050;-86
2021/01/10 09:56:55;;;;;;;15.65;7.00;;;;;;;23.18;15.27;98820.41;5086807;28;20058;-88
2021/01/10 09:59:41;;;;;;;11.77;6.13;;;;;;;23.22;15.12;98818.34;5066965;28;20032;-86
2021/01/10 10:02:25;;;;;;;13.98;6.88;;;;;;;23.38;14.91;98821.47;5082710;28;20037;-87
2021/01/10 10:05:08;;;;;;;15.23;6.65;;;;;;;23.57;14.69;98822.94;5082294;28;20036;-85
2021/01/10 10:07:46;;;;;;;17.60;7.22;;;;;;;23.57;14.70;98819.34;5088466;28;20044;-86
2021/01/10 10:10:19;;;;;;;15.32;7.88;;;;;;;23.44;14.90;98815.44;5092092;28;20496;-85
2021/01/10 10:12:52;;;;;;;12.68;6.35;;;;;;;23.48;14.81;98814.19;5089849;28;20536;-87
2021/01/10 10:15:19;;;;;;;10.95;5.68;;;;;;;23.12;15.24;98807.22;5075192;28;20045;-86
2021/01/10 10:17:45;;;;;;;14.43;6.82;;;;;;;23.18;15.24;98803.59;5068351;28;20047;-87
2021/01/10 10:20:12;;;;;;;14.82;5.80;;;;;;;23.31;15.42;98803.91;5060536;28;20175;-86
2021/01/10 10:22:39;;;;;;;11.40;5.93;;;;;;;23.39;14.99;98805.47;5069507;28;20063;-88
2021/01/10 10:25:12;;;;;;;14.85;6.70;;;;;;;23.44;14.57;98799.41;5092592;28;20032;-85
2021/01/10 10:27:55;;;;;;;14.73;7.22;;;;;;;23.14;15.39;98797.22;5090859;28;20032;-86
2021/01/10 10:30:22;;;;;;;15.63;7.47;;;;;;;22.86;15.61;98794.59;5090185;28;20051;-86
2021/01/10 10:32:48;;;;;;;13.10;7.03;;;;;;;23.14;15.53;98788.81;5090415;28;20039;-85
2021/01/10 10:35:15;;;;;;;19.38;9.63;;;;;;;21.87;16.39;98791.31;5084259;28;20058;-86
2021/01/10 10:37:41;;;;;;;11.63;6.75;;;;;;;19.99;18.53;98795.63;5089830;28;20062;-85
2021/01/10 10:40:07;;;;;;;19.40;9.75;;;;;;;20.60;17.75;98791.97;5087989;28;20076;-85
2021/01/10 10:42:34;;;;;;;12.63;6.30;;;;;;;19.75;18.42;98775.94;5068276;28;20071;-85
2021/01/10 10:45:03;;;;;;;18.50;9.43;;;;;;;18.75;19.30;98781.03;5086869;28;20028;-85
2021/01/10 10:47:29;;;;;;;16.58;7.88;;;;;;;19.50;19.13;98786.13;5090386;28;20063;-87
2021/01/10 10:49:55;;;;;;;15.75;8.73;;;;;;;20.58;17.86;98772.00;5084676;28;20459;-87
2021/01/10 10:52:21;;;;;;;13.43;7.75;;;;;;;21.42;16.57;98780.97;5091395;28;20074;-87
2021/01/10 10:54:47;;;;;;;15.02;8.27;;;;;;;21.81;16.63;98774.13;5087478;28;20040;-87
2021/01/10 10:57:13;;;;;;;15.25;7.05;;;;;;;23.57;14.79;98769.66;5092566;28;20024;-85
2021/01/10 10:59:39;;;;;;;9.35;5.47;;;;;;;23.85;14.51;98771.44;5090163;28;20119;-86
2021/01/10 11:02:12;;;;;;;12.23;5.88;;;;;;;24.90;14.02;98762.97;5087566;28;20028;-86
2021/01/10 11:04:41;;;;;;;9.43;5.05;;;;;;;23.81;13.95;98765.03;5090851;28;20032;-86
2021/01/10 11:07:08;;;;;;;12.77;6.65;;;;;;;22.21;15.50;98760.88;5090921;28;20055;-85
2021/01/10 11:09:34;;;;;;;10.60;5.35;;;;;;;21.62;16.33;98768.97;5090346;28;20065;-85
2021/01/10 11:12:01;;;;;;;12.88;6.47;;;;;;;20.42;16.59;98777.13;5090442;28;20032;-85
2021/01/10 11:14:27;;;;;;;12.93;6.32;;;;;;;22.08;16.03;98763.31;5087738;28;20115;-85
2021/01/10 11:16:53;;;;;;;13.25;6.85;;;;;;;22.24;15.64;98752.47;5089794;28;20016;-85
2021/01/10 11:19:21;;;;;;;15.45;7.78;;;;;;;23.13;14.73;98749.97;5088973;28;20032;-85
2021/01/10 11:21:49;;;;;;;16.45;6.78;;;;;;;23.41;14.24;98746.22;5084721;28;20119;-87
2021/01/10 11:24:16;;;;;;;17.52;9.48;;;;;;;18.36;18.86;98750.78;5087587;28;20032;-86
2021/01/10 11:26:45;;;;;;;16.35;8.10;;;;;;;17.17;20.04;98760.94;5089650;28;20086;-85
2021/01/10 11:29:12;;;;;;;14.35;8.68;;;;;;;17.52;20.00;98760.75;5092548;28;20377;-85
2021/01/10 11:31:40;;;;;;;11.20;5.55;;;;;;;18.94;18.81;98755.78;5058985;28;20032;-84